sensor_id;sensor_type;location;lat;lon;timestamp;temperature;humidity
8261;DHT22;64115;50.170;8.242;2023-04-24T00:01:52;8.60;99.90
8261;DHT22;64115;50.170;8.242;2023-04-24T00:04:20;8.60;99.90
8261;DHT22;64115;50.170;8.242;2023-04-24T00:06:51;8.60;99.90
8261;DHT22;64115;50.170;8.242;2023-04-24T00:09:20;8.60;99.90
8261;DHT22;64115;50.170;8.242;2023-04-24T00:11:47;8.60;99.90
8261;DHT22;64115;50.170;8.242;2023-04-24T00:14:14;8.60;99.90
8261;DHT22;64115;50.170;8.242;2023-04-24T00:16:41;8.70;99.90
8261;DHT22;64115;50.170;8.242;2023-04-24T00:19:08;8.60;99.90
8261;DHT22;64115;50.170;8.242;2023-04-24T00:21:39;8.60;99.90
8261;DHT22;64115;50.170;8.242;2023-04-24T00:24:07;8.50;99.90
8261;DHT22;64115;50.170;8.242;2023-04-24T00:26:35;8.50;99.90
8261;DHT22;64115;50.170;8.242;2023-04-24T00:29:02;8.50;99.90
8261;DHT22;64115;50.170;8.242;2023-04-24T00:31:29;8.50;99.90
8261;DHT22;64115;50.170;8.242;2023-04-24T00:33:57;8.50;99.90
8261;DHT22;64115;50.170;8.242;2023-04-24T00:36:24;8.50;99.90
8261;DHT22;64115;50.170;8.242;2023-04-24T00:38:54;8.50;99.90
8261;DHT22;64115;50.170;8.242;2023-04-24T00:41:21;8.50;99.90
8261;DHT22;64115;50.170;8.242;2023-04-24T00:43:48;8.40;99.90
8261;DHT22;64115;50.170;8.242;2023-04-24T00:46:16;8.50;99.90
8261;DHT22;64115;50.170;8.242;2023-04-24T00:48:43;8.50;99.90
8261;DHT22;64115;50.170;8.242;2023-04-24T00:51:11;8.60;99.90
8261;DHT22;64115;50.170;8.242;2023-04-24T00:53:38;8.60;99.90
8261;DHT22;64115;50.170;8.242;2023-04-24T00:56:07;8.60;99.90
8261;DHT22;64115;50.170;8.242;2023-04-24T00:58:34;8.60;99.90
8261;DHT22;64115;50.170;8.242;2023-04-24T01:01:02;8.60;99.90
8261;DHT22;64115;50.170;8.242;2023-04-24T01:03:33;8.60;99.90
8261;DHT22;64115;50.170;8.242;2023-04-24T01:06:03;8.50;99.90
8261;DHT22;64115;50.170;8.242;2023-04-24T01:08:30;8.50;99.90
8261;DHT22;64115;50.170;8.242;2023-04-24T01:10:58;8.40;99.90
8261;DHT22;64115;50.170;8.242;2023-04-24T01:13:27;8.40;99.90
8261;DHT22;64115;50.170;8.242;2023-04-24T01:15:54;8.40;99.90
8261;DHT22;64115;50.170;8.242;2023-04-24T01:18:21;8.50;99.90
8261;DHT22;64115;50.170;8.242;2023-04-24T01:20:51;8.50;99.90
8261;DHT22;64115;50.170;8.242;2023-04-24T01:23:21;8.50;99.90
8261;DHT22;64115;50.170;8.242;2023-04-24T01:25:49;8.50;99.90
8261;DHT22;64115;50.170;8.242;2023-04-24T01:28:17;8.50;99.90
8261;DHT22;64115;50.170;8.242;2023-04-24T01:30:44;8.50;99.90
8261;DHT22;64115;50.170;8.242;2023-04-24T01:33:12;8.50;99.90
8261;DHT22;64115;50.170;8.242;2023-04-24T01:35:40;8.50;99.90
8261;DHT22;64115;50.170;8.242;2023-04-24T01:38:07;8.50;99.90
8261;DHT22;64115;50.170;8.242;2023-04-24T01:40:35;8.50;99.90
8261;DHT22;64115;50.170;8.242;2023-04-24T01:43:02;8.50;99.90
8261;DHT22;64115;50.170;8.242;2023-04-24T01:45:29;8.50;99.90
8261;DHT22;64115;50.170;8.242;2023-04-24T01:47:56;8.50;99.90
8261;DHT22;64115;50.170;8.242;2023-04-24T01:50:24;8.50;99.90
8261;DHT22;64115;50.170;8.242;2023-04-24T01:52:51;8.50;99.90
8261;DHT22;64115;50.170;8.242;2023-04-24T01:55:18;8.50;99.90
8261;DHT22;64115;50.170;8.242;2023-04-24T01:57:47;8.50;99.90
8261;DHT22;64115;50.170;8.242;2023-04-24T02:00:14;8.50;99.90
8261;DHT22;64115;50.170;8.242;2023-04-24T02:02:41;8.50;99.90
8261;DHT22;64115;50.170;8.242;2023-04-24T02:05:09;8.50;99.90
8261;DHT22;64115;50.170;8.242;2023-04-24T02:07:36;8.50;99.90
8261;DHT22;64115;50.170;8.242;2023-04-24T02:10:04;8.40;99.90
8261;DHT22;64115;50.170;8.242;2023-04-24T02:12:31;8.40;99.90
8261;DHT22;64115;50.170;8.242;2023-04-24T02:15:00;8.50;99.90
8261;DHT22;64115;50.170;8.242;2023-04-24T02:17:28;8.40;99.90
8261;DHT22;64115;50.170;8.242;2023-04-24T02:19:56;8.40;99.90
8261;DHT22;64115;50.170;8.242;2023-04-24T02:22:23;8.30;99.90
8261;DHT22;64115;50.170;8.242;2023-04-24T02:24:50;8.10;99.90
8261;DHT22;64115;50.170;8.242;2023-04-24T02:27:17;8.10;99.90
8261;DHT22;64115;50.170;8.242;2023-04-24T02:29:44;8.00;99.90
8261;DHT22;64115;50.170;8.242;2023-04-24T02:32:13;7.90;99.90
8261;DHT22;64115;50.170;8.242;2023-04-24T02:34:41;7.90;99.90
8261;DHT22;64115;50.170;8.242;2023-04-24T02:37:08;7.90;99.90
8261;DHT22;64115;50.170;8.242;2023-04-24T02:39:35;7.90;99.90
8261;DHT22;64115;50.170;8.242;2023-04-24T02:42:02;7.80;99.90
8261;DHT22;64115;50.170;8.242;2023-04-24T02:44:29;7.80;99.90
8261;DHT22;64115;50.170;8.242;2023-04-24T02:46:56;7.80;99.90
8261;DHT22;64115;50.170;8.242;2023-04-24T02:49:24;7.80;99.90
8261;DHT22;64115;50.170;8.242;2023-04-24T02:51:52;7.80;99.90
8261;DHT22;64115;50.170;8.242;2023-04-24T02:54:19;7.70;99.90
8261;DHT22;64115;50.170;8.242;2023-04-24T02:56:46;7.70;99.90
8261;DHT22;64115;50.170;8.242;2023-04-24T02:59:13;7.70;99.90
8261;DHT22;64115;50.170;8.242;2023-04-24T03:01:40;7.70;99.90
8261;DHT22;64115;50.170;8.242;2023-04-24T03:04:07;7.80;99.90
8261;DHT22;64115;50.170;8.242;2023-04-24T03:06:37;7.80;99.90
8261;DHT22;64115;50.170;8.242;2023-04-24T03:09:04;7.80;99.90
8261;DHT22;64115;50.170;8.242;2023-04-24T03:11:31;7.70;99.90
8261;DHT22;64115;50.170;8.242;2023-04-24T03:13:58;7.70;99.90
8261;DHT22;64115;50.170;8.242;2023-04-24T03:16:25;7.70;99.90
8261;DHT22;64115;50.170;8.242;2023-04-24T03:18:52;7.70;99.90
8261;DHT22;64115;50.170;8.242;2023-04-24T03:21:19;7.70;99.90
8261;DHT22;64115;50.170;8.242;2023-04-24T03:23:48;7.70;99.90
8261;DHT22;64115;50.170;8.242;2023-04-24T03:26:15;7.60;99.90
8261;DHT22;64115;50.170;8.242;2023-04-24T03:28:42;7.60;99.90
8261;DHT22;64115;50.170;8.242;2023-04-24T03:31:09;7.60;99.90
8261;DHT22;64115;50.170;8.242;2023-04-24T03:33:36;7.60;99.90
8261;DHT22;64115;50.170;8.242;2023-04-24T03:36:04;7.60;99.90
8261;DHT22;64115;50.170;8.242;2023-04-24T03:38:31;7.60;99.90
8261;DHT22;64115;50.170;8.242;2023-04-24T03:41:00;7.50;99.90
8261;DHT22;64115;50.170;8.242;2023-04-24T03:43:27;7.50;99.90
8261;DHT22;64115;50.170;8.242;2023-04-24T03:45:54;7.40;99.90
8261;DHT22;64115;50.170;8.242;2023-04-24T03:48:21;7.30;99.90
8261;DHT22;64115;50.170;8.242;2023-04-24T03:50:48;7.30;99.90
8261;DHT22;64115;50.170;8.242;2023-04-24T03:53:15;7.20;99.90
8261;DHT22;64115;50.170;8.242;2023-04-24T03:55:42;7.20;99.90
8261;DHT22;64115;50.170;8.242;2023-04-24T03:58:11;7.20;99.90
8261;DHT22;64115;50.170;8.242;2023-04-24T04:00:39;7.30;99.90
8261;DHT22;64115;50.170;8.242;2023-04-24T04:03:06;7.20;99.90
8261;DHT22;64115;50.170;8.242;2023-04-24T04:05:33;7.10;99.90
8261;DHT22;64115;50.170;8.242;2023-04-24T04:08:00;7.00;99.90
8261;DHT22;64115;50.170;8.242;2023-04-24T04:10:27;6.90;99.90
8261;DHT22;64115;50.170;8.242;2023-04-24T04:12:54;6.80;99.90
8261;DHT22;64115;50.170;8.242;2023-04-24T04:15:23;6.70;99.90
8261;DHT22;64115;50.170;8.242;2023-04-24T04:17:51;6.60;99.90
8261;DHT22;64115;50.170;8.242;2023-04-24T04:20:18;6.50;99.90
8261;DHT22;64115;50.170;8.242;2023-04-24T04:22:45;6.40;99.90
8261;DHT22;64115;50.170;8.242;2023-04-24T04:25:12;6.40;99.90
8261;DHT22;64115;50.170;8.242;2023-04-24T04:27:39;6.30;99.90
8261;DHT22;64115;50.170;8.242;2023-04-24T04:30:07;6.30;99.90
8261;DHT22;64115;50.170;8.242;2023-04-24T04:32:36;6.20;99.90
8261;DHT22;64115;50.170;8.242;2023-04-24T04:35:04;6.10;99.90
8261;DHT22;64115;50.170;8.242;2023-04-24T04:37:32;6.10;99.90
8261;DHT22;64115;50.170;8.242;2023-04-24T04:40:00;6.10;99.90
8261;DHT22;64115;50.170;8.242;2023-04-24T04:42:31;6.10;99.90
8261;DHT22;64115;50.170;8.242;2023-04-24T04:44:59;6.20;99.90
8261;DHT22;64115;50.170;8.242;2023-04-24T04:47:27;6.30;99.90
8261;DHT22;64115;50.170;8.242;2023-04-24T04:49:58;6.40;99.90
8261;DHT22;64115;50.170;8.242;2023-04-24T04:52:26;6.50;99.90
8261;DHT22;64115;50.170;8.242;2023-04-24T04:54:53;6.60;99.90
8261;DHT22;64115;50.170;8.242;2023-04-24T04:57:20;6.70;99.90
8261;DHT22;64115;50.170;8.242;2023-04-24T04:59:47;6.60;99.90
8261;DHT22;64115;50.170;8.242;2023-04-24T05:02:14;6.60;99.90
8261;DHT22;64115;50.170;8.242;2023-04-24T05:04:42;6.50;99.90
8261;DHT22;64115;50.170;8.242;2023-04-24T05:07:11;6.50;99.90
8261;DHT22;64115;50.170;8.242;2023-04-24T05:09:38;6.30;99.90
8261;DHT22;64115;50.170;8.242;2023-04-24T05:12:05;6.30;99.90
8261;DHT22;64115;50.170;8.242;2023-04-24T05:14:33;6.30;99.90
8261;DHT22;64115;50.170;8.242;2023-04-24T05:17:00;6.50;99.90
8261;DHT22;64115;50.170;8.242;2023-04-24T05:19:27;6.60;99.90
8261;DHT22;64115;50.170;8.242;2023-04-24T05:21:54;6.80;99.90
8261;DHT22;64115;50.170;8.242;2023-04-24T05:24:23;6.90;99.90
8261;DHT22;64115;50.170;8.242;2023-04-24T05:26:50;7.00;99.90
8261;DHT22;64115;50.170;8.242;2023-04-24T05:29:17;7.00;99.90
8261;DHT22;64115;50.170;8.242;2023-04-24T05:31:45;7.00;99.90
8261;DHT22;64115;50.170;8.242;2023-04-24T05:34:12;6.90;99.90
8261;DHT22;64115;50.170;8.242;2023-04-24T05:36:39;6.90;99.90
8261;DHT22;64115;50.170;8.242;2023-04-24T05:39:06;7.00;99.90
8261;DHT22;64115;50.170;8.242;2023-04-24T05:41:35;7.00;99.90
8261;DHT22;64115;50.170;8.242;2023-04-24T05:44:02;7.00;99.90
8261;DHT22;64115;50.170;8.242;2023-04-24T05:46:29;7.10;99.90
8261;DHT22;64115;50.170;8.242;2023-04-24T05:48:56;7.20;99.90
8261;DHT22;64115;50.170;8.242;2023-04-24T05:51:23;7.30;99.90
8261;DHT22;64115;50.170;8.242;2023-04-24T05:53:51;7.40;99.90
8261;DHT22;64115;50.170;8.242;2023-04-24T05:56:18;7.60;99.90
8261;DHT22;64115;50.170;8.242;2023-04-24T05:58:47;7.80;99.90
8261;DHT22;64115;50.170;8.242;2023-04-24T06:01:14;7.90;99.90
8261;DHT22;64115;50.170;8.242;2023-04-24T06:03:41;8.00;99.90
8261;DHT22;64115;50.170;8.242;2023-04-24T06:06:10;8.20;99.90
8261;DHT22;64115;50.170;8.242;2023-04-24T06:08:37;8.40;99.90
8261;DHT22;64115;50.170;8.242;2023-04-24T06:11:04;8.50;99.90
8261;DHT22;64115;50.170;8.242;2023-04-24T06:13:32;8.50;99.90
8261;DHT22;64115;50.170;8.242;2023-04-24T06:16:00;8.60;99.90
8261;DHT22;64115;50.170;8.242;2023-04-24T06:18:27;8.70;99.90
8261;DHT22;64115;50.170;8.242;2023-04-24T06:20:54;8.90;99.90
8261;DHT22;64115;50.170;8.242;2023-04-24T06:23:22;9.00;99.90
8261;DHT22;64115;50.170;8.242;2023-04-24T06:25:49;8.90;99.90
8261;DHT22;64115;50.170;8.242;2023-04-24T06:28:16;8.70;99.90
8261;DHT22;64115;50.170;8.242;2023-04-24T06:30:43;8.40;99.90
8261;DHT22;64115;50.170;8.242;2023-04-24T06:33:12;8.30;99.90
8261;DHT22;64115;50.170;8.242;2023-04-24T06:35:39;8.20;99.90
8261;DHT22;64115;50.170;8.242;2023-04-24T06:38:06;8.10;99.90
8261;DHT22;64115;50.170;8.242;2023-04-24T06:40:33;8.10;99.90
8261;DHT22;64115;50.170;8.242;2023-04-24T06:43:00;8.30;99.90
8261;DHT22;64115;50.170;8.242;2023-04-24T06:45:28;8.70;99.90
8261;DHT22;64115;50.170;8.242;2023-04-24T06:47:55;9.10;99.90
8261;DHT22;64115;50.170;8.242;2023-04-24T06:50:24;9.30;99.90
8261;DHT22;64115;50.170;8.242;2023-04-24T06:52:51;9.40;99.90
8261;DHT22;64115;50.170;8.242;2023-04-24T06:55:18;9.30;99.90
8261;DHT22;64115;50.170;8.242;2023-04-24T06:57:45;9.30;99.90
8261;DHT22;64115;50.170;8.242;2023-04-24T07:00:13;9.30;99.90
8261;DHT22;64115;50.170;8.242;2023-04-24T07:02:40;9.40;99.90
8261;DHT22;64115;50.170;8.242;2023-04-24T07:05:07;9.50;99.90
8261;DHT22;64115;50.170;8.242;2023-04-24T07:12:47;10.10;99.90
8261;DHT22;64115;50.170;8.242;2023-04-24T07:15:14;10.10;99.90
8261;DHT22;64115;50.170;8.242;2023-04-24T07:17:41;10.00;99.90
8261;DHT22;64115;50.170;8.242;2023-04-24T07:20:10;10.00;99.90
8261;DHT22;64115;50.170;8.242;2023-04-24T07:22:39;10.10;99.90
8261;DHT22;64115;50.170;8.242;2023-04-24T07:25:08;10.00;99.90
8261;DHT22;64115;50.170;8.242;2023-04-24T07:27:35;10.10;99.90
8261;DHT22;64115;50.170;8.242;2023-04-24T07:30:06;10.20;99.90
8261;DHT22;64115;50.170;8.242;2023-04-24T07:32:33;10.30;99.90
8261;DHT22;64115;50.170;8.242;2023-04-24T07:35:04;10.30;99.90
8261;DHT22;64115;50.170;8.242;2023-04-24T07:37:31;10.20;99.90
8261;DHT22;64115;50.170;8.242;2023-04-24T07:39:58;10.30;99.90
8261;DHT22;64115;50.170;8.242;2023-04-24T07:42:25;10.20;99.90
8261;DHT22;64115;50.170;8.242;2023-04-24T07:44:52;10.30;99.90
8261;DHT22;64115;50.170;8.242;2023-04-24T07:47:21;10.30;99.90
8261;DHT22;64115;50.170;8.242;2023-04-24T07:49:48;10.40;99.90
8261;DHT22;64115;50.170;8.242;2023-04-24T07:52:15;10.40;99.90
8261;DHT22;64115;50.170;8.242;2023-04-24T07:54:42;10.50;99.90
8261;DHT22;64115;50.170;8.242;2023-04-24T07:57:10;10.80;99.90
8261;DHT22;64115;50.170;8.242;2023-04-24T07:59:37;11.10;99.90
8261;DHT22;64115;50.170;8.242;2023-04-24T08:02:04;10.90;99.90
8261;DHT22;64115;50.170;8.242;2023-04-24T08:04:34;10.80;99.90
8261;DHT22;64115;50.170;8.242;2023-04-24T08:07:01;10.70;99.90
8261;DHT22;64115;50.170;8.242;2023-04-24T08:09:28;10.50;99.90
8261;DHT22;64115;50.170;8.242;2023-04-24T08:11:55;10.10;99.90
8261;DHT22;64115;50.170;8.242;2023-04-24T08:14:22;10.00;99.90
8261;DHT22;64115;50.170;8.242;2023-04-24T08:16:49;9.60;99.90
8261;DHT22;64115;50.170;8.242;2023-04-24T08:19:16;9.50;99.90
8261;DHT22;64115;50.170;8.242;2023-04-24T08:21:44;9.40;99.90
8261;DHT22;64115;50.170;8.242;2023-04-24T08:24:11;9.50;99.90
8261;DHT22;64115;50.170;8.242;2023-04-24T08:26:39;9.40;99.90
8261;DHT22;64115;50.170;8.242;2023-04-24T08:29:06;9.20;99.90
8261;DHT22;64115;50.170;8.242;2023-04-24T08:31:33;9.10;99.90
8261;DHT22;64115;50.170;8.242;2023-04-24T08:34:01;9.10;99.90
8261;DHT22;64115;50.170;8.242;2023-04-24T08:36:28;9.00;99.90
8261;DHT22;64115;50.170;8.242;2023-04-24T08:38:57;8.90;99.90
8261;DHT22;64115;50.170;8.242;2023-04-24T08:41:24;8.90;99.90
8261;DHT22;64115;50.170;8.242;2023-04-24T08:43:51;9.00;99.90
8261;DHT22;64115;50.170;8.242;2023-04-24T08:46:20;9.00;99.90
8261;DHT22;64115;50.170;8.242;2023-04-24T08:48:48;9.00;99.90
8261;DHT22;64115;50.170;8.242;2023-04-24T08:51:17;8.90;99.90
8261;DHT22;64115;50.170;8.242;2023-04-24T08:53:45;9.00;99.90
8261;DHT22;64115;50.170;8.242;2023-04-24T08:56:14;8.90;99.90
8261;DHT22;64115;50.170;8.242;2023-04-24T08:58:42;8.90;99.90
8261;DHT22;64115;50.170;8.242;2023-04-24T09:01:10;8.80;99.90
8261;DHT22;64115;50.170;8.242;2023-04-24T09:03:38;8.80;99.90
8261;DHT22;64115;50.170;8.242;2023-04-24T09:06:08;8.80;99.90
8261;DHT22;64115;50.170;8.242;2023-04-24T09:08:36;8.70;99.90
8261;DHT22;64115;50.170;8.242;2023-04-24T09:11:03;8.80;99.90
8261;DHT22;64115;50.170;8.242;2023-04-24T09:13:32;9.00;99.90
8261;DHT22;64115;50.170;8.242;2023-04-24T09:16:00;8.90;99.90
8261;DHT22;64115;50.170;8.242;2023-04-24T09:18:27;9.00;99.90
8261;DHT22;64115;50.170;8.242;2023-04-24T09:20:57;9.00;99.90
8261;DHT22;64115;50.170;8.242;2023-04-24T09:23:26;9.00;99.90
8261;DHT22;64115;50.170;8.242;2023-04-24T09:25:55;8.90;99.90
8261;DHT22;64115;50.170;8.242;2023-04-24T09:28:26;8.70;99.90
8261;DHT22;64115;50.170;8.242;2023-04-24T09:31:04;8.60;99.90
8261;DHT22;64115;50.170;8.242;2023-04-24T09:33:32;8.50;99.90
8261;DHT22;64115;50.170;8.242;2023-04-24T09:35:59;8.60;99.90
8261;DHT22;64115;50.170;8.242;2023-04-24T09:38:34;8.60;99.90
8261;DHT22;64115;50.170;8.242;2023-04-24T09:41:03;8.80;99.90
8261;DHT22;64115;50.170;8.242;2023-04-24T09:43:31;8.70;99.90
8261;DHT22;64115;50.170;8.242;2023-04-24T09:46:03;8.80;99.90
8261;DHT22;64115;50.170;8.242;2023-04-24T09:48:33;8.90;99.90
8261;DHT22;64115;50.170;8.242;2023-04-24T09:51:01;9.00;99.90
8261;DHT22;64115;50.170;8.242;2023-04-24T09:53:29;8.80;99.90
8261;DHT22;64115;50.170;8.242;2023-04-24T09:56:00;8.80;99.90
8261;DHT22;64115;50.170;8.242;2023-04-24T09:58:28;8.80;99.90
8261;DHT22;64115;50.170;8.242;2023-04-24T10:00:56;8.80;99.90
8261;DHT22;64115;50.170;8.242;2023-04-24T10:03:25;8.90;99.90
8261;DHT22;64115;50.170;8.242;2023-04-24T10:05:54;8.80;99.90
8261;DHT22;64115;50.170;8.242;2023-04-24T10:08:25;8.90;99.90
8261;DHT22;64115;50.170;8.242;2023-04-24T10:10:52;9.00;99.90
8261;DHT22;64115;50.170;8.242;2023-04-24T10:13:19;9.00;99.90
8261;DHT22;64115;50.170;8.242;2023-04-24T10:15:49;8.90;99.90
8261;DHT22;64115;50.170;8.242;2023-04-24T10:18:17;8.80;99.90
8261;DHT22;64115;50.170;8.242;2023-04-24T10:20:44;8.80;99.90
8261;DHT22;64115;50.170;8.242;2023-04-24T10:23:14;8.80;99.90
8261;DHT22;64115;50.170;8.242;2023-04-24T10:25:42;9.10;99.90
8261;DHT22;64115;50.170;8.242;2023-04-24T10:28:10;9.40;99.90
8261;DHT22;64115;50.170;8.242;2023-04-24T10:30:39;9.80;99.90
8261;DHT22;64115;50.170;8.242;2023-04-24T10:33:09;10.00;99.90
8261;DHT22;64115;50.170;8.242;2023-04-24T10:35:39;10.20;99.90
8261;DHT22;64115;50.170;8.242;2023-04-24T10:38:10;10.40;99.90
8261;DHT22;64115;50.170;8.242;2023-04-24T10:40:39;10.60;99.90
8261;DHT22;64115;50.170;8.242;2023-04-24T10:43:08;10.50;99.90
8261;DHT22;64115;50.170;8.242;2023-04-24T10:45:37;10.50;99.90
8261;DHT22;64115;50.170;8.242;2023-04-24T10:48:06;10.50;99.90
8261;DHT22;64115;50.170;8.242;2023-04-24T10:50:45;10.60;99.90
8261;DHT22;64115;50.170;8.242;2023-04-24T10:53:16;10.70;99.90
8261;DHT22;64115;50.170;8.242;2023-04-24T10:55:47;10.60;99.90
8261;DHT22;64115;50.170;8.242;2023-04-24T10:58:14;10.20;99.90
8261;DHT22;64115;50.170;8.242;2023-04-24T11:00:43;10.20;99.90
8261;DHT22;64115;50.170;8.242;2023-04-24T11:03:25;10.10;99.90
8261;DHT22;64115;50.170;8.242;2023-04-24T11:05:56;10.30;99.90
8261;DHT22;64115;50.170;8.242;2023-04-24T11:08:25;10.50;99.90
8261;DHT22;64115;50.170;8.242;2023-04-24T11:11:01;10.60;99.90
8261;DHT22;64115;50.170;8.242;2023-04-24T11:16:32;10.40;99.90
8261;DHT22;64115;50.170;8.242;2023-04-24T11:19:04;10.30;99.90
8261;DHT22;64115;50.170;8.242;2023-04-24T11:21:38;10.50;99.90
8261;DHT22;64115;50.170;8.242;2023-04-24T11:24:38;10.40;99.90
8261;DHT22;64115;50.170;8.242;2023-04-24T11:27:11;10.00;99.90
8261;DHT22;64115;50.170;8.242;2023-04-24T11:29:41;9.80;99.90
8261;DHT22;64115;50.170;8.242;2023-04-24T11:32:22;9.70;99.90
8261;DHT22;64115;50.170;8.242;2023-04-24T11:34:51;9.80;99.90
8261;DHT22;64115;50.170;8.242;2023-04-24T11:37:19;10.10;99.90
8261;DHT22;64115;50.170;8.242;2023-04-24T11:39:46;10.50;99.90
8261;DHT22;64115;50.170;8.242;2023-04-24T11:42:15;10.90;99.90
8261;DHT22;64115;50.170;8.242;2023-04-24T11:44:43;10.90;99.90
8261;DHT22;64115;50.170;8.242;2023-04-24T11:47:10;11.00;99.90
8261;DHT22;64115;50.170;8.242;2023-04-24T11:49:37;10.90;99.90
8261;DHT22;64115;50.170;8.242;2023-04-24T11:52:04;10.80;99.90
8261;DHT22;64115;50.170;8.242;2023-04-24T11:54:31;10.70;99.90
8261;DHT22;64115;50.170;8.242;2023-04-24T11:56:59;10.80;99.90
8261;DHT22;64115;50.170;8.242;2023-04-24T11:59:27;11.10;99.90
8261;DHT22;64115;50.170;8.242;2023-04-24T12:01:54;11.30;99.90
8261;DHT22;64115;50.170;8.242;2023-04-24T12:04:21;11.10;99.90
8261;DHT22;64115;50.170;8.242;2023-04-24T12:07:01;10.80;99.90
8261;DHT22;64115;50.170;8.242;2023-04-24T12:09:29;11.20;99.90
8261;DHT22;64115;50.170;8.242;2023-04-24T12:12:06;11.70;99.90
8261;DHT22;64115;50.170;8.242;2023-04-24T12:14:42;11.60;99.90
8261;DHT22;64115;50.170;8.242;2023-04-24T12:17:09;11.30;99.90
8261;DHT22;64115;50.170;8.242;2023-04-24T12:19:36;11.20;99.90
8261;DHT22;64115;50.170;8.242;2023-04-24T12:22:05;11.30;99.90
8261;DHT22;64115;50.170;8.242;2023-04-24T12:24:32;11.20;99.90
8261;DHT22;64115;50.170;8.242;2023-04-24T12:27:00;11.00;99.90
8261;DHT22;64115;50.170;8.242;2023-04-24T12:29:28;10.60;99.90
8261;DHT22;64115;50.170;8.242;2023-04-24T12:31:56;10.60;99.90
8261;DHT22;64115;50.170;8.242;2023-04-24T12:34:25;10.80;99.90
8261;DHT22;64115;50.170;8.242;2023-04-24T12:36:52;11.00;99.90
8261;DHT22;64115;50.170;8.242;2023-04-24T12:39:19;11.10;99.90
8261;DHT22;64115;50.170;8.242;2023-04-24T12:41:55;11.40;99.90
8261;DHT22;64115;50.170;8.242;2023-04-24T12:44:30;11.70;99.90
8261;DHT22;64115;50.170;8.242;2023-04-24T12:47:01;11.80;99.90
8261;DHT22;64115;50.170;8.242;2023-04-24T12:49:30;12.00;99.90
8261;DHT22;64115;50.170;8.242;2023-04-24T12:51:57;12.00;99.90
8261;DHT22;64115;50.170;8.242;2023-04-24T12:54:24;11.80;99.90
8261;DHT22;64115;50.170;8.242;2023-04-24T12:56:51;11.50;99.90
8261;DHT22;64115;50.170;8.242;2023-04-24T12:59:18;11.20;99.90
8261;DHT22;64115;50.170;8.242;2023-04-24T13:01:45;11.00;99.90
8261;DHT22;64115;50.170;8.242;2023-04-24T13:04:14;10.80;99.90
8261;DHT22;64115;50.170;8.242;2023-04-24T13:06:42;10.40;99.90
8261;DHT22;64115;50.170;8.242;2023-04-24T13:09:09;10.20;99.90
8261;DHT22;64115;50.170;8.242;2023-04-24T13:11:36;10.10;99.90
8261;DHT22;64115;50.170;8.242;2023-04-24T13:14:03;10.10;99.90
8261;DHT22;64115;50.170;8.242;2023-04-24T13:16:31;10.50;99.90
8261;DHT22;64115;50.170;8.242;2023-04-24T13:18:58;11.00;99.90
8261;DHT22;64115;50.170;8.242;2023-04-24T13:21:26;11.30;99.90
8261;DHT22;64115;50.170;8.242;2023-04-24T13:23:54;11.20;99.90
8261;DHT22;64115;50.170;8.242;2023-04-24T13:26:21;11.40;99.90
8261;DHT22;64115;50.170;8.242;2023-04-24T13:28:48;11.60;99.90
8261;DHT22;64115;50.170;8.242;2023-04-24T13:31:15;11.70;99.90
8261;DHT22;64115;50.170;8.242;2023-04-24T13:33:42;11.90;99.90
8261;DHT22;64115;50.170;8.242;2023-04-24T13:36:09;12.10;99.90
8261;DHT22;64115;50.170;8.242;2023-04-24T13:38:38;12.10;99.90
8261;DHT22;64115;50.170;8.242;2023-04-24T13:41:05;12.10;99.90
8261;DHT22;64115;50.170;8.242;2023-04-24T13:43:32;12.10;99.90
8261;DHT22;64115;50.170;8.242;2023-04-24T13:45:59;11.80;99.90
8261;DHT22;64115;50.170;8.242;2023-04-24T13:48:28;11.50;99.90
8261;DHT22;64115;50.170;8.242;2023-04-24T13:50:56;11.30;99.90
8261;DHT22;64115;50.170;8.242;2023-04-24T13:53:23;11.30;99.90
8261;DHT22;64115;50.170;8.242;2023-04-24T13:55:51;11.50;99.90
8261;DHT22;64115;50.170;8.242;2023-04-24T13:58:18;11.60;99.90
8261;DHT22;64115;50.170;8.242;2023-04-24T14:00:46;11.70;99.90
8261;DHT22;64115;50.170;8.242;2023-04-24T14:03:13;11.50;99.90
8261;DHT22;64115;50.170;8.242;2023-04-24T14:05:40;11.40;99.90
8261;DHT22;64115;50.170;8.242;2023-04-24T14:08:07;11.20;99.90
8261;DHT22;64115;50.170;8.242;2023-04-24T14:10:34;11.20;99.90
8261;DHT22;64115;50.170;8.242;2023-04-24T14:13:03;11.10;99.90
8261;DHT22;64115;50.170;8.242;2023-04-24T14:15:31;11.00;99.90
8261;DHT22;64115;50.170;8.242;2023-04-24T14:17:58;11.10;99.90
8261;DHT22;64115;50.170;8.242;2023-04-24T14:20:25;11.20;99.90
8261;DHT22;64115;50.170;8.242;2023-04-24T14:22:52;11.40;99.90
8261;DHT22;64115;50.170;8.242;2023-04-24T14:25:19;11.50;99.90
8261;DHT22;64115;50.170;8.242;2023-04-24T14:27:48;11.60;99.90
8261;DHT22;64115;50.170;8.242;2023-04-24T14:30:17;11.70;99.90
8261;DHT22;64115;50.170;8.242;2023-04-24T14:32:44;11.90;99.90
8261;DHT22;64115;50.170;8.242;2023-04-24T14:35:11;12.10;99.90
8261;DHT22;64115;50.170;8.242;2023-04-24T14:37:39;11.90;99.90
8261;DHT22;64115;50.170;8.242;2023-04-24T14:40:07;11.90;99.90
8261;DHT22;64115;50.170;8.242;2023-04-24T14:42:35;11.80;99.90
8261;DHT22;64115;50.170;8.242;2023-04-24T14:45:03;11.40;99.90
8261;DHT22;64115;50.170;8.242;2023-04-24T14:47:31;11.10;99.90
8261;DHT22;64115;50.170;8.242;2023-04-24T14:49:58;11.10;99.90
8261;DHT22;64115;50.170;8.242;2023-04-24T14:52:26;11.10;99.90
8261;DHT22;64115;50.170;8.242;2023-04-24T14:54:53;11.10;99.90
8261;DHT22;64115;50.170;8.242;2023-04-24T14:57:20;11.20;99.90
8261;DHT22;64115;50.170;8.242;2023-04-24T14:59:47;11.20;99.90
8261;DHT22;64115;50.170;8.242;2023-04-24T15:02:14;11.10;99.90
8261;DHT22;64115;50.170;8.242;2023-04-24T15:04:42;11.00;99.90
8261;DHT22;64115;50.170;8.242;2023-04-24T15:07:09;10.90;99.90
8261;DHT22;64115;50.170;8.242;2023-04-24T15:09:36;11.00;99.90
8261;DHT22;64115;50.170;8.242;2023-04-24T15:12:04;10.90;99.90
8261;DHT22;64115;50.170;8.242;2023-04-24T15:14:31;10.80;99.90
8261;DHT22;64115;50.170;8.242;2023-04-24T15:16:58;10.70;99.90
8261;DHT22;64115;50.170;8.242;2023-04-24T15:19:25;10.80;99.90
8261;DHT22;64115;50.170;8.242;2023-04-24T15:21:54;10.80;99.90
8261;DHT22;64115;50.170;8.242;2023-04-24T15:24:21;10.70;99.90
8261;DHT22;64115;50.170;8.242;2023-04-24T15:26:48;10.70;99.90
8261;DHT22;64115;50.170;8.242;2023-04-24T15:29:15;10.70;99.90
8261;DHT22;64115;50.170;8.242;2023-04-24T15:31:42;10.70;99.90
8261;DHT22;64115;50.170;8.242;2023-04-24T15:34:09;10.80;99.90
8261;DHT22;64115;50.170;8.242;2023-04-24T15:36:36;10.90;99.90
8261;DHT22;64115;50.170;8.242;2023-04-24T15:39:04;11.30;99.90
8261;DHT22;64115;50.170;8.242;2023-04-24T15:41:32;11.90;99.90
8261;DHT22;64115;50.170;8.242;2023-04-24T15:43:59;12.40;99.90
8261;DHT22;64115;50.170;8.242;2023-04-24T15:46:26;12.80;99.90
8261;DHT22;64115;50.170;8.242;2023-04-24T15:48:53;13.20;99.90
8261;DHT22;64115;50.170;8.242;2023-04-24T15:51:20;13.50;99.90
8261;DHT22;64115;50.170;8.242;2023-04-24T15:53:47;14.00;99.90
8261;DHT22;64115;50.170;8.242;2023-04-24T15:56:15;14.40;99.90
8261;DHT22;64115;50.170;8.242;2023-04-24T15:58:43;14.40;99.90
8261;DHT22;64115;50.170;8.242;2023-04-24T16:01:10;14.00;99.90
8261;DHT22;64115;50.170;8.242;2023-04-24T16:03:38;13.30;99.90
8261;DHT22;64115;50.170;8.242;2023-04-24T16:06:05;12.90;99.90
8261;DHT22;64115;50.170;8.242;2023-04-24T16:08:33;12.30;99.90